Terminal Aerodrome Forecast
Issued by NWS North Platte, NE

Home | Current Version | Previous Version | Graphics & Text | Print | Product List | Glossary On
Versions: 1 2 3 4 5 6 7 8 9 10 11 12 13 14 15 16 17 18
000
FTUS43 KLBF 271100
TAFVTN
TAF
KVTN 271130Z 2712/2812 30007KT P6SM FEW250
     FM271600 34014G22KT P6SM FEW070 SCT250
     FM280100 01008KT P6SM SCT250=

USA.gov is the U.S. government's official web portal to all federal, state and local government web resources and services.